Date,TemperatureHighF,TemperatureAvgF,TemperatureLowF,DewpointHighF,DewpointAvgF,DewpointLowF,HumidityHigh,HumidityAvg,HumidityLow,PressureMaxIn,PressureMinIn,WindSpeedMaxMPH,WindSpeedAvgMPH,GustSpeedMaxMPH,PrecipitationSumIn
2014-1-1,44.8,38.0,34.2,39.6,36.0,33.1,97,93,81,30.12,29.83,3,0,6,0.14
2014-1-2,44.4,40.7,35.8,43.4,39.6,34.8,98,96,89,29.93,29.77,3,1,7,0.42
2014-1-3,42.4,39.3,34.5,41.9,38.6,33.8,98,97,96,30.12,29.93,3,0,6,0.41
2014-1-4,43.0,41.7,34.5,42.5,41.0,33.2,98,98,94,30.08,29.55,10,2,22,1.24
2014-1-5,40.5,34.7,32.5,37.9,33.6,32.0,98,96,88,30.06,29.68,6,0,10,0.33
2014-1-6,44.2,37.1,32.7,38.7,34.3,31.7,96,90,69,30.13,30.02,3,1,8,0.01
2014-1-7,52.0,44.4,39.2,44.3,40.8,37.6,96,87,75,30.20,30.13,3,1,8,0.00
2014-1-8,50.4,45.4,41.9,45.3,42.7,40.7,96,90,80,30.28,30.19,3,0,7,0.00
2014-1-9,48.6,43.7,39.6,44.0,41.6,38.7,97,92,83,30.19,30.05,2,0,5,0.00
2014-1-10,53.2,44.2,38.5,45.3,41.3,37.2,96,90,73,30.14,30.05,3,0,5,0.00
2014-1-11,48.0,42.2,36.5,43.7,40.0,35.7,97,92,84,30.23,30.06,4,0,7,0.01
2014-1-12,42.8,38.0,35.1,40.7,36.4,33.7,97,94,90,30.24,30.15,6,1,12,0.00
2014-1-13,40.5,37.9,35.1,39.9,37.3,34.2,98,98,96,30.15,29.87,2,0,3,0.22
2014-1-14,39.9,37.4,34.2,39.4,36.3,32.8,98,96,90,29.95,29.77,8,1,16,0.29
2014-1-15,35.8,33.1,29.1,34.3,31.7,27.6,97,95,89,30.00,29.89,5,1,9,0.01
2014-1-16,43.2,38.4,34.3,41.2,36.6,33.1,97,94,84,29.90,29.68,6,1,9,0.67
2014-1-17,42.3,37.7,34.5,40.4,36.7,33.5,98,96,92,29.76,29.67,6,2,12,0.21
2014-1-18,39.6,37.2,36.1,36.4,35.3,34.2,97,93,86,29.71,29.50,5,2,13,0.01
2014-1-19,44.2,38.1,34.3,42.0,36.8,33.3,98,95,89,29.52,29.46,4,0,7,0.00
2014-1-20,39.2,37.8,36.1,37.7,36.4,33.8,98,95,89,29.84,29.52,8,2,16,0.17
2014-1-21,40.5,37.2,33.3,36.0,34.2,31.2,93,89,83,29.94,29.84,9,5,20,0.01
2014-1-22,41.9,34.8,30.4,36.2,32.4,29.4,97,91,79,29.98,29.86,5,1,9,0.01
2014-1-23,39.0,36.8,34.5,38.1,35.7,33.5,97,96,93,30.12,29.98,3,0,7,0.22
2014-1-24,37.0,33.4,29.3,33.3,30.6,25.4,97,90,77,30.07,29.98,5,2,11,0.28
2014-1-25,36.7,31.6,25.3,32.0,28.0,23.4,93,86,77,30.19,30.03,4,1,12,0.00
2014-1-26,40.8,36.7,32.5,37.4,34.8,31.2,97,93,86,30.19,29.67,7,1,14,0.57
2014-1-27,43.0,36.5,29.8,40.1,33.0,28.3,98,87,65,29.73,29.59,9,2,28,0.30
2014-1-28,36.9,32.3,28.9,33.1,29.9,27.4,97,91,81,29.64,29.45,4,1,8,0.01
2014-1-29,33.6,32.8,30.9,32.7,29.9,26.3,97,89,76,29.64,29.42,6,2,14,0.04
2014-1-30,37.4,33.9,30.9,34.9,32.8,30.2,97,96,89,29.69,29.63,4,0,10,0.13
2014-1-31,40.8,33.5,28.6,35.9,31.4,27.6,97,92,79,29.89,29.70,4,0,7,0.04